createdAt,value
2019-04-19T00:00:40.451Z,3.50
2019-04-19T00:07:23.967Z,4.50
2019-04-19T00:09:57.361Z,4.70
2019-04-19T00:12:25.296Z,5.50
2019-04-19T00:16:41.138Z,6.90
2019-04-19T00:19:24.746Z,6.70
2019-04-19T00:22:01.912Z,6.40
2019-04-19T00:24:00.149Z,6.20
2019-04-19T00:26:25.893Z,6.10
2019-04-19T00:28:57.404Z,6.20
2019-04-19T00:31:33.225Z,6.30
2019-04-19T00:33:50.435Z,6.40
2019-04-19T00:36:14.787Z,6.30
2019-04-19T00:43:40.957Z,6.00
2019-04-19T00:46:12.765Z,6.00
2019-04-19T00:48:36.256Z,6.10
2019-04-19T00:55:09.178Z,6.40
2019-04-19T00:57:10.743Z,6.40
2019-04-19T00:59:24.367Z,6.40
2019-04-19T01:01:57.663Z,6.30
2019-04-19T01:04:21.659Z,6.30
2019-04-19T01:06:50.205Z,6.40
2019-04-19T01:09:24.408Z,6.20
2019-04-19T01:11:54.929Z,6.40
2019-04-19T01:14:19.527Z,6.50
2019-04-19T01:16:51.898Z,6.50
2019-04-19T01:19:04.823Z,6.40
2019-04-19T01:21:25.908Z,6.20
2019-04-19T01:23:56.611Z,6.20
2019-04-19T01:26:18.717Z,6.20
2019-04-19T01:28:51.315Z,6.30
2019-04-19T01:31:17.707Z,6.20
2019-04-19T01:33:40.915Z,6.50
2019-04-19T01:40:25.005Z,6.60
2019-04-19T01:42:49.925Z,6.50
2019-04-19T01:49:47.323Z,6.20
2019-04-19T01:54:35.678Z,6.00
2019-04-19T02:01:01.621Z,6.10
2019-04-19T02:09:50.824Z,6.40
2019-04-19T02:12:26.166Z,6.40
2019-04-19T02:14:48.643Z,6.30
2019-04-19T02:17:09.812Z,6.20
2019-04-19T02:19:33.741Z,6.10
2019-04-19T02:21:53.885Z,6.10
2019-04-19T02:24:07.138Z,6.30
2019-04-19T02:26:26.768Z,6.40
2019-04-19T02:28:42.343Z,6.30
2019-04-19T02:31:25.620Z,6.10
2019-04-19T02:33:38.932Z,6.10
2019-04-19T02:36:06.387Z,6.00
2019-04-19T02:38:21.588Z,6.10
2019-04-19T02:43:04.049Z,6.50
2019-04-19T02:45:21.355Z,6.70
2019-04-19T02:49:58.057Z,6.70
2019-04-19T02:52:21.909Z,6.60
2019-04-19T03:00:13.339Z,6.90
2019-04-19T03:05:03.570Z,6.50
2019-04-19T03:06:52.086Z,6.50
2019-04-19T03:08:59.343Z,6.40
2019-04-19T03:11:37.632Z,6.40
2019-04-19T03:13:46.474Z,6.40
2019-04-19T03:16:12.733Z,6.30
2019-04-19T03:20:55.531Z,6.30
2019-04-19T03:23:13.966Z,6.00
2019-04-19T03:25:35.782Z,5.90
2019-04-19T03:27:56.122Z,5.80
2019-04-19T03:30:11.018Z,5.70
2019-04-19T03:33:00.452Z,5.70
2019-04-19T03:39:37.188Z,5.50
2019-04-19T03:42:12.699Z,5.90
2019-04-19T03:44:37.460Z,5.80
2019-04-19T03:51:13.585Z,5.60
2019-04-19T03:55:57.742Z,5.70
2019-04-19T03:58:02.725Z,6.00
2019-04-19T04:00:07.023Z,6.10
2019-04-19T04:02:36.884Z,5.80
2019-04-19T04:05:07.165Z,6.00
2019-04-19T04:07:30.332Z,5.80
2019-04-19T04:09:40.655Z,5.80
2019-04-19T04:12:22.113Z,5.70
2019-04-19T04:15:03.903Z,6.00
2019-04-19T04:17:18.560Z,5.90
2019-04-19T04:19:44.132Z,6.00
2019-04-19T04:22:17.647Z,6.40
2019-04-19T04:26:49.426Z,6.50
2019-04-19T04:31:17.162Z,6.50
2019-04-19T04:35:56.166Z,6.20
2019-04-19T04:40:06.226Z,6.10
2019-04-19T04:42:37.657Z,6.30
2019-04-19T04:45:24.970Z,6.40
2019-04-19T04:48:20.590Z,6.50
2019-04-19T04:52:50.674Z,6.70
2019-04-19T04:55:26.802Z,6.50
2019-04-19T04:57:57.242Z,6.60
2019-04-19T05:00:22.245Z,7.00
2019-04-19T05:03:00.450Z,7.10
2019-04-19T05:05:31.541Z,7.50
2019-04-19T05:08:07.221Z,7.80
2019-04-19T05:10:27.084Z,8.20
2019-04-19T05:13:10.699Z,8.30
2019-04-19T05:15:22.653Z,8.20
2019-04-19T05:17:55.731Z,8.30
2019-04-19T05:20:17.141Z,8.40
2019-04-19T05:22:39.006Z,8.60
2019-04-19T05:25:12.313Z,8.80
2019-04-19T05:29:19.747Z,9.20
2019-04-19T05:31:42.415Z,9.50
2019-04-19T05:34:20.848Z,10.00
2019-04-19T05:36:43.817Z,10.30
2019-04-19T05:39:36.243Z,10.70
2019-04-19T05:44:26.925Z,11.70
2019-04-19T05:50:56.863Z,12.00
2019-04-19T05:55:26.050Z,12.20
2019-04-19T05:57:53.736Z,12.40
2019-04-19T05:59:55.763Z,12.70
2019-04-19T06:02:07.523Z,13.00
2019-04-19T06:04:26.129Z,13.40
2019-04-19T06:06:45.384Z,13.50
2019-04-19T06:08:32.980Z,13.00
2019-04-19T06:10:45.386Z,13.30
2019-04-19T06:12:58.025Z,13.70
2019-04-19T06:15:27.517Z,13.60
2019-04-19T06:17:46.997Z,14.10
2019-04-19T06:20:12.318Z,14.10
2019-04-19T06:22:14.504Z,14.10
2019-04-19T06:24:28.752Z,14.40
2019-04-19T06:28:57.091Z,14.90
2019-04-19T06:31:03.094Z,15.30
2019-04-19T06:33:08.070Z,15.20
2019-04-19T06:35:12.930Z,15.30
2019-04-19T06:37:15.300Z,15.60
2019-04-19T06:39:16.422Z,16.00
2019-04-19T06:41:32.164Z,16.40
2019-04-19T06:43:50.715Z,16.20
2019-04-19T06:46:01.258Z,16.60
2019-04-19T06:48:04.826Z,17.50
2019-04-19T06:50:04.711Z,17.50
2019-04-19T06:52:22.941Z,18.10
2019-04-19T06:54:35.445Z,18.00
2019-04-19T06:56:41.224Z,17.80
2019-04-19T06:59:02.569Z,18.30
2019-04-19T07:01:13.044Z,19.00
2019-04-19T07:03:13.996Z,18.70
2019-04-19T07:05:34.992Z,19.30
2019-04-19T07:07:43.583Z,19.20
2019-04-19T07:10:11.520Z,19.40
2019-04-19T07:12:06.742Z,19.10
2019-04-19T07:14:07.503Z,19.60
2019-04-19T07:16:31.577Z,20.50
2019-04-19T07:18:31.060Z,20.30
2019-04-19T07:20:56.396Z,20.80
2019-04-19T07:22:57.845Z,20.60
2019-04-19T07:25:25.201Z,21.10
2019-04-19T07:27:19.909Z,22.80
2019-04-19T07:29:17.044Z,22.50
2019-04-19T07:31:23.908Z,22.20
2019-04-19T07:33:41.506Z,23.50
2019-04-19T07:36:08.864Z,23.80
2019-04-19T07:38:16.941Z,23.60
2019-04-19T07:40:19.785Z,23.70
2019-04-19T07:42:30.580Z,24.00
2019-04-19T07:44:46.109Z,24.20
2019-04-19T07:47:22.659Z,23.00
2019-04-19T07:49:25.791Z,24.20
2019-04-19T07:53:49.049Z,25.30
2019-04-19T07:56:08.880Z,24.60
2019-04-19T07:58:37.462Z,25.10
2019-04-19T08:01:00.897Z,25.50
2019-04-19T08:02:59.905Z,24.60
2019-04-19T08:09:53.572Z,23.80
2019-04-19T08:13:58.104Z,25.40
2019-04-19T08:16:04.809Z,25.40
2019-04-19T08:18:13.263Z,25.00
2019-04-19T08:28:59.737Z,24.80
2019-04-19T08:31:09.306Z,24.90
2019-04-19T08:33:21.004Z,26.10
2019-04-19T08:35:39.986Z,26.20
2019-04-19T08:37:43.672Z,26.00
2019-04-19T08:40:08.687Z,26.10
2019-04-19T08:42:24.643Z,26.50
2019-04-19T08:44:26.729Z,27.30
2019-04-19T08:46:51.534Z,27.20
2019-04-19T08:49:30.186Z,25.60
2019-04-19T08:51:48.806Z,26.20
2019-04-19T08:54:14.895Z,26.60
2019-04-19T08:56:16.486Z,27.20
2019-04-19T08:58:40.352Z,26.90
2019-04-19T09:00:57.921Z,26.70
2019-04-19T09:02:50.335Z,27.00
2019-04-19T09:05:08.977Z,26.70
2019-04-19T09:09:39.261Z,26.80
2019-04-19T09:11:41.176Z,26.80
2019-04-19T09:13:55.933Z,27.40
2019-04-19T09:16:07.217Z,27.80
2019-04-19T09:20:29.214Z,27.80
2019-04-19T09:22:56.971Z,27.90
2019-04-19T09:25:05.233Z,26.20
2019-04-19T09:27:31.709Z,27.30
2019-04-19T09:29:40.293Z,27.00
2019-04-19T09:31:36.149Z,27.10
2019-04-19T09:33:37.356Z,26.90
2019-04-19T09:35:57.096Z,26.10
2019-04-19T09:38:11.329Z,26.80
2019-04-19T09:40:12.206Z,26.20
2019-04-19T09:42:36.626Z,25.80
2019-04-19T09:44:37.905Z,26.50
2019-04-19T09:46:38.078Z,26.60
2019-04-19T09:49:05.179Z,26.90
2019-04-19T09:51:14.389Z,27.50
2019-04-19T09:53:30.774Z,27.90
2019-04-19T09:55:39.368Z,28.00
2019-04-19T09:57:53.639Z,28.30
2019-04-19T10:00:00.916Z,28.70
2019-04-19T10:02:02.243Z,28.90
2019-04-19T10:04:06.526Z,27.50
2019-04-19T10:06:19.063Z,28.20
2019-04-19T10:08:24.659Z,27.10
2019-04-19T10:10:36.800Z,28.60
2019-04-19T10:12:43.343Z,27.50
2019-04-19T10:14:48.675Z,28.70
2019-04-19T10:17:09.439Z,29.10
2019-04-19T10:19:16.844Z,28.00
2019-04-19T10:21:58.308Z,28.10
2019-04-19T10:24:09.030Z,27.40
2019-04-19T10:26:18.355Z,27.00
2019-04-19T10:28:30.546Z,28.00
2019-04-19T10:30:52.579Z,28.10
2019-04-19T10:33:06.599Z,27.70
2019-04-19T10:35:13.490Z,28.00
2019-04-19T10:37:20.309Z,28.20
2019-04-19T10:39:33.923Z,28.40
2019-04-19T10:41:40.560Z,28.60
2019-04-19T10:43:58.869Z,28.30
2019-04-19T10:46:00.549Z,27.30
2019-04-19T10:48:13.778Z,27.50
2019-04-19T10:50:37.573Z,27.60
2019-04-19T10:52:35.343Z,28.10
2019-04-19T10:54:47.655Z,28.40
2019-04-19T10:57:12.563Z,27.40
2019-04-19T10:59:26.698Z,28.80
2019-04-19T11:01:45.451Z,28.00
2019-04-19T11:03:50.810Z,28.60
2019-04-19T11:05:56.645Z,29.20
2019-04-19T11:08:09.676Z,30.10
2019-04-19T11:10:21.998Z,28.30
2019-04-19T11:12:34.463Z,27.40
2019-04-19T11:14:39.991Z,26.80
2019-04-19T11:16:51.871Z,27.10
2019-04-19T11:19:09.045Z,28.00
2019-04-19T11:21:05.270Z,29.40
2019-04-19T11:23:24.151Z,29.30
2019-04-19T11:25:30.342Z,28.50
2019-04-19T11:27:42.867Z,28.80
2019-04-19T11:29:56.441Z,28.60
2019-04-19T11:32:35.997Z,28.30
2019-04-19T11:34:51.345Z,28.70
2019-04-19T11:36:57.851Z,28.30
2019-04-19T11:39:10.825Z,28.80
2019-04-19T11:41:25.009Z,29.20
2019-04-19T11:43:31.381Z,28.10
2019-04-19T11:45:37.734Z,27.90
2019-04-19T11:47:49.559Z,27.00
2019-04-19T11:49:55.542Z,28.00
2019-04-19T11:52:09.566Z,27.30
2019-04-19T11:54:14.515Z,27.40
2019-04-19T11:56:54.289Z,26.80
2019-04-19T11:59:06.755Z,26.90
2019-04-19T12:01:22.365Z,28.30
2019-04-19T12:03:39.074Z,27.70
2019-04-19T12:05:44.197Z,28.90
2019-04-19T12:07:50.460Z,29.30
2019-04-19T12:10:03.138Z,28.50
2019-04-19T12:12:10.494Z,27.30
2019-04-19T12:14:25.229Z,28.50
2019-04-19T12:16:29.323Z,28.60
2019-04-19T12:18:37.261Z,28.50
2019-04-19T12:20:49.569Z,27.50
2019-04-19T12:23:04.184Z,27.20
2019-04-19T12:25:12.004Z,27.30
2019-04-19T12:27:24.090Z,28.10
2019-04-19T12:29:40.870Z,28.20
2019-04-19T12:31:45.509Z,27.50
2019-04-19T12:33:51.305Z,27.60
2019-04-19T12:35:57.095Z,27.80
2019-04-19T12:38:10.265Z,27.50
2019-04-19T12:40:16.986Z,27.70
2019-04-19T12:42:35.805Z,26.30
2019-04-19T12:44:48.350Z,26.70
2019-04-19T12:46:53.494Z,27.00
2019-04-19T12:49:06.786Z,28.20
2019-04-19T12:51:13.904Z,27.90
2019-04-19T12:53:19.537Z,28.00
2019-04-19T12:55:32.344Z,28.50
2019-04-19T12:57:43.890Z,27.80
2019-04-19T12:59:49.978Z,28.60
2019-04-19T13:02:20.080Z,28.00
2019-04-19T13:04:32.727Z,27.50
2019-04-19T13:06:46.313Z,27.20
2019-04-19T13:08:52.843Z,26.50
2019-04-19T13:11:05.449Z,26.60
2019-04-19T13:13:18.153Z,25.80
2019-04-19T13:15:25.051Z,24.20
2019-04-19T13:17:38.186Z,23.30
2019-04-19T13:19:44.948Z,23.50
2019-04-19T13:21:50.429Z,23.40
2019-04-19T13:24:10.910Z,23.60
2019-04-19T13:26:17.508Z,23.30
2019-04-19T13:28:23.927Z,22.90
2019-04-19T13:30:43.362Z,22.80
2019-04-19T13:32:42.335Z,22.60
2019-04-19T13:34:47.664Z,22.70
2019-04-19T13:37:33.641Z,23.10
2019-04-19T13:39:52.814Z,22.80
2019-04-19T13:42:03.062Z,22.80
2019-04-19T13:44:09.103Z,22.50
2019-04-19T13:46:20.930Z,22.30
2019-04-19T13:48:26.053Z,22.30
2019-04-19T13:50:37.263Z,22.40
2019-04-19T13:52:46.798Z,22.40
2019-04-19T13:54:52.623Z,22.40
2019-04-19T13:57:00.087Z,22.50
2019-04-19T13:59:12.763Z,22.40
2019-04-19T14:01:25.853Z,22.20
2019-04-19T14:03:45.646Z,22.60
2019-04-19T14:05:57.791Z,22.80
2019-04-19T14:08:03.483Z,22.50
2019-04-19T14:10:17.167Z,22.10
2019-04-19T14:12:23.048Z,22.20
2019-04-19T14:14:44.411Z,22.00
2019-04-19T14:16:51.499Z,22.20
2019-04-19T14:19:05.500Z,21.90
2019-04-19T14:21:10.839Z,21.80
2019-04-19T14:23:23.642Z,21.70
2019-04-19T14:25:35.217Z,21.90
2019-04-19T14:27:41.633Z,21.60
2019-04-19T14:29:53.462Z,21.40
2019-04-19T14:31:59.199Z,21.30
2019-04-19T14:34:05.082Z,21.30
2019-04-19T14:36:17.831Z,21.20
2019-04-19T14:38:25.678Z,21.40
2019-04-19T14:40:31.334Z,21.40
2019-04-19T14:42:42.915Z,20.90
2019-04-19T14:44:49.494Z,20.90
2019-04-19T14:47:03.007Z,20.80
2019-04-19T14:49:16.509Z,21.00
2019-04-19T14:51:31.674Z,21.00
2019-04-19T14:53:42.898Z,21.10
2019-04-19T14:55:55.874Z,21.10
2019-04-19T14:58:01.543Z,21.00
2019-04-19T15:00:15.280Z,21.10
2019-04-19T15:02:38.632Z,21.10
2019-04-19T15:05:09.805Z,21.10
2019-04-19T15:07:28.344Z,21.20
2019-04-19T15:09:37.475Z,21.20
2019-04-19T15:11:43.534Z,21.10
2019-04-19T15:13:56.301Z,21.00
2019-04-19T15:16:08.659Z,20.70
2019-04-19T15:18:13.934Z,21.00
2019-04-19T15:20:20.331Z,21.00
2019-04-19T15:22:35.622Z,20.80
2019-04-19T15:24:48.746Z,20.70
2019-04-19T15:26:54.703Z,20.40
2019-04-19T15:29:07.258Z,20.30
2019-04-19T15:31:14.195Z,20.30
2019-04-19T15:33:20.466Z,20.30
2019-04-19T15:35:33.846Z,20.20
2019-04-19T15:37:40.940Z,20.30
2019-04-19T15:39:46.278Z,20.30
2019-04-19T15:42:02.363Z,20.10
2019-04-19T15:44:08.561Z,20.00
2019-04-19T15:46:21.822Z,19.80
2019-04-19T15:48:37.856Z,19.70
2019-04-19T15:50:42.971Z,19.50
2019-04-19T15:52:55.823Z,19.50
2019-04-19T15:55:02.009Z,19.50
2019-04-19T15:57:08.028Z,19.50
2019-04-19T15:59:22.335Z,19.50
2019-04-19T16:01:44.126Z,19.50
2019-04-19T16:04:01.872Z,19.40
2019-04-19T16:06:22.470Z,19.20
2019-04-19T16:08:47.557Z,19.20
2019-04-19T16:11:12.987Z,19.10
2019-04-19T16:13:25.759Z,19.10
2019-04-19T16:15:38.196Z,19.00
2019-04-19T16:17:43.959Z,19.10
2019-04-19T16:19:57.609Z,18.60
2019-04-19T16:22:05.233Z,18.40
2019-04-19T16:24:17.110Z,18.20
2019-04-19T16:26:28.814Z,18.20
2019-04-19T16:28:35.043Z,17.90
2019-04-19T16:30:46.669Z,17.70
2019-04-19T16:32:58.135Z,17.30
2019-04-19T16:35:03.630Z,16.80
2019-04-19T16:37:16.711Z,16.50
2019-04-19T16:39:23.356Z,16.20
2019-04-19T16:41:28.994Z,15.80
2019-04-19T16:43:41.750Z,15.50
2019-04-19T16:46:01.447Z,15.40
2019-04-19T16:48:01.017Z,15.30
2019-04-19T16:50:06.878Z,15.00
2019-04-19T16:52:13.011Z,14.60
2019-04-19T16:54:25.982Z,14.40
2019-04-19T16:56:31.913Z,14.20
2019-04-19T16:58:44.691Z,14.10
2019-04-19T17:00:52.433Z,14.00
2019-04-19T17:03:05.061Z,13.90
2019-04-19T17:05:18.712Z,13.80
2019-04-19T17:07:35.077Z,13.70
2019-04-19T17:09:47.883Z,13.60
2019-04-19T17:11:53.572Z,13.50
2019-04-19T17:14:00.698Z,13.60
2019-04-19T17:16:29.368Z,13.90
2019-04-19T17:18:50.657Z,13.50
2019-04-19T17:20:59.643Z,13.20
2019-04-19T17:23:12.768Z,12.90
2019-04-19T17:25:25.976Z,12.70
2019-04-19T17:27:38.969Z,12.80
2019-04-19T17:29:45.284Z,12.60
2019-04-19T17:31:51.978Z,12.40
2019-04-19T17:34:06.437Z,12.10
2019-04-19T17:36:12.438Z,12.10
2019-04-19T17:38:31.223Z,12.20
2019-04-19T17:40:32.375Z,12.20
2019-04-19T17:42:38.126Z,12.10
2019-04-19T17:44:43.873Z,11.90
2019-04-19T17:46:56.422Z,11.90
2019-04-19T17:49:02.438Z,11.80
2019-04-19T17:51:09.508Z,11.60
2019-04-19T17:53:25.359Z,11.50
2019-04-19T17:55:38.163Z,11.30
2019-04-19T17:57:43.171Z,11.30
2019-04-19T17:59:50.189Z,11.10
2019-04-19T18:01:56.783Z,11.00
2019-04-19T18:04:09.164Z,10.90
2019-04-19T18:06:14.724Z,10.80
2019-04-19T18:08:31.191Z,10.70
2019-04-19T18:10:51.648Z,10.60
2019-04-19T18:12:55.103Z,10.60
2019-04-19T18:15:01.648Z,10.60
2019-04-19T18:17:14.562Z,10.50
2019-04-19T18:19:27.506Z,10.40
2019-04-19T18:21:37.370Z,10.20
2019-04-19T18:23:47.958Z,10.20
2019-04-19T18:25:57.012Z,10.20
2019-04-19T18:28:12.448Z,10.10
2019-04-19T18:30:17.923Z,10.10
2019-04-19T18:32:32.187Z,9.90
2019-04-19T18:34:48.583Z,9.80
2019-04-19T18:36:56.496Z,9.70
2019-04-19T18:39:11.882Z,9.60
2019-04-19T18:41:18.792Z,9.50
2019-04-19T18:43:42.979Z,9.50
2019-04-19T18:45:42.209Z,9.40
2019-04-19T18:47:47.260Z,9.30
2019-04-19T18:49:59.380Z,9.20
2019-04-19T18:52:28.489Z,9.20
2019-04-19T18:54:26.257Z,9.10
2019-04-19T18:56:36.168Z,9.10
2019-04-19T18:58:42.490Z,9.00
2019-04-19T19:00:53.631Z,8.90
2019-04-19T19:03:06.744Z,8.80
2019-04-19T19:05:13.739Z,8.70
2019-04-19T19:07:23.715Z,8.70
2019-04-19T19:09:46.175Z,8.70
2019-04-19T19:11:59.070Z,8.60
2019-04-19T19:14:11.061Z,8.60
2019-04-19T19:16:20.747Z,8.70
2019-04-19T19:18:33.588Z,8.60
2019-04-19T19:20:36.858Z,8.60
2019-04-19T19:22:58.769Z,8.50
2019-04-19T19:25:17.567Z,8.50
2019-04-19T19:27:17.488Z,8.30
2019-04-19T19:29:20.413Z,8.30
2019-04-19T19:31:34.851Z,8.40
2019-04-19T19:33:44.294Z,8.50
2019-04-19T19:35:56.713Z,8.40
2019-04-19T19:38:09.897Z,8.40
2019-04-19T19:40:23.383Z,8.30
2019-04-19T19:42:47.860Z,8.30
2019-04-19T19:44:45.129Z,8.20
2019-04-19T19:47:17.436Z,8.20
2019-04-19T19:49:38.517Z,8.00
2019-04-19T19:51:29.338Z,8.10
2019-04-19T19:55:53.468Z,8.00
2019-04-19T19:57:55.412Z,7.90
2019-04-19T20:00:00.730Z,7.90
2019-04-19T20:02:17.102Z,7.80
2019-04-19T20:04:10.941Z,7.80
2019-04-19T20:06:20.429Z,7.80
2019-04-19T20:08:36.061Z,7.70
2019-04-19T20:10:47.630Z,7.60
2019-04-19T20:12:57.523Z,7.70
2019-04-19T20:15:10.995Z,7.70
2019-04-19T20:17:15.077Z,7.70
2019-04-19T20:19:27.543Z,7.60
2019-04-19T20:21:34.376Z,7.60
2019-04-19T20:23:55.267Z,7.60
2019-04-19T20:26:10.831Z,7.60
2019-04-19T20:28:07.664Z,7.80
2019-04-19T20:30:14.476Z,7.90
2019-04-19T20:32:26.821Z,7.80
2019-04-19T20:34:35.030Z,7.70
2019-04-19T20:36:47.126Z,7.60
2019-04-19T20:38:58.795Z,7.60
2019-04-19T20:41:03.967Z,7.50
2019-04-19T20:43:32.159Z,7.40
2019-04-19T20:45:29.131Z,7.40
2019-04-19T20:47:42.995Z,7.30
2019-04-19T20:49:45.801Z,7.30
2019-04-19T20:52:09.654Z,7.10
2019-04-19T20:54:38.418Z,7.20
2019-04-19T20:57:04.722Z,7.40
2019-04-19T20:58:57.954Z,7.30
2019-04-19T21:01:03.023Z,7.20
2019-04-19T21:03:24.594Z,7.30
2019-04-19T21:05:22.355Z,7.40
2019-04-19T21:07:36.810Z,7.40
2019-04-19T21:09:47.503Z,7.40
2019-04-19T21:12:00.655Z,7.40
2019-04-19T21:14:07.198Z,7.30
2019-04-19T21:16:20.390Z,7.30
2019-04-19T21:18:27.832Z,7.30
2019-04-19T21:20:34.376Z,7.20
2019-04-19T21:22:46.805Z,7.20
2019-04-19T21:25:04.902Z,7.20
2019-04-19T21:27:18.252Z,7.20
2019-04-19T21:29:24.025Z,7.20
2019-04-19T21:31:37.302Z,7.10
2019-04-19T21:33:49.520Z,7.10
2019-04-19T21:35:53.376Z,7.20
2019-04-19T21:38:09.825Z,7.10
2019-04-19T21:40:10.174Z,7.10
2019-04-19T21:42:23.977Z,7.00
2019-04-19T21:44:36.636Z,6.90
2019-04-19T21:46:42.238Z,6.90
2019-04-19T21:48:48.893Z,6.80
2019-04-19T21:51:01.841Z,6.80
2019-04-19T21:53:09.645Z,6.80
2019-04-19T21:55:28.873Z,6.80
2019-04-19T21:57:32.420Z,6.80
2019-04-19T21:59:39.492Z,6.60
2019-04-19T22:01:51.335Z,6.50
2019-04-19T22:04:03.622Z,6.40
2019-04-19T22:06:13.418Z,6.40
2019-04-19T22:08:24.738Z,6.50
2019-04-19T22:10:34.548Z,6.50
2019-04-19T22:12:50.473Z,6.50
2019-04-19T22:15:05.176Z,6.40
2019-04-19T22:17:13.104Z,6.50
2019-04-19T22:19:27.749Z,6.40
2019-04-19T22:21:34.661Z,6.40
2019-04-19T22:23:47.481Z,6.40
2019-04-19T22:26:09.994Z,6.40
2019-04-19T22:28:05.300Z,6.40
2019-04-19T22:30:17.979Z,6.30
2019-04-19T22:32:32.342Z,6.20
2019-04-19T22:34:37.793Z,6.20
2019-04-19T22:36:48.571Z,6.10
2019-04-19T22:39:00.263Z,6.10
2019-04-19T22:41:08.727Z,6.10
2019-04-19T22:43:18.693Z,6.10
2019-04-19T22:45:32.681Z,6.20
2019-04-19T22:47:44.395Z,6.30
2019-04-19T22:49:57.487Z,6.30
2019-04-19T22:52:04.708Z,6.40
2019-04-19T22:54:10.825Z,6.30
2019-04-19T22:56:31.411Z,6.30
2019-04-19T22:58:33.445Z,6.30
2019-04-19T23:00:47.085Z,6.30
2019-04-19T23:03:05.043Z,6.30
2019-04-19T23:05:20.543Z,6.50
2019-04-19T23:07:27.027Z,6.70
2019-04-19T23:09:32.717Z,6.70
2019-04-19T23:11:45.734Z,6.80
2019-04-19T23:14:07.433Z,6.70
2019-04-19T23:16:13.577Z,6.80
2019-04-19T23:18:23.089Z,7.10
2019-04-19T23:20:39.513Z,7.40
2019-04-19T23:22:47.831Z,7.30
2019-04-19T23:24:59.522Z,7.20
2019-04-19T23:27:29.093Z,7.20
2019-04-19T23:29:27.924Z,7.10
2019-04-19T23:31:43.081Z,7.10
2019-04-19T23:33:58.682Z,6.90
2019-04-19T23:36:12.854Z,6.60
2019-04-19T23:38:18.689Z,7.20
2019-04-19T23:40:21.689Z,7.00
2019-04-19T23:42:39.765Z,6.80
2019-04-19T23:44:41.646Z,7.00
2019-04-19T23:46:59.649Z,8.60
2019-04-19T23:49:07.356Z,8.80
2019-04-19T23:51:08.408Z,8.60
2019-04-19T23:53:23.282Z,8.90
2019-04-19T23:55:34.668Z,8.50
2019-04-19T23:57:46.395Z,7.90
